Terminal Aerodrome Forecast
Issued by NWS

Home | Current Version | Previous Version | Text Only | Print | Product List | Glossary On
Versions: 1 2 3 4 5 6 7 8 9 10 11 12 13 14 15 16 17 18
000
FTUS42 KTBW 181737
TAFPGD
TAF
KPGD 181737Z 1818/1918 23010KT P6SM FEW035 BKN250
     FM190200 13005KT P6SM SCT200
     FM191000 VRB03KT 5SM BR FEW005 SCT250
     FM191300 18006KT P6SM FEW005 SCT250
     FM191500 21010KT P6SM SCT200=

USA.gov is the U.S. government's official web portal to all federal, state and local government web resources and services.